Eliasville, TX (76481)

10:44 AM CST on December 28, 2014 (GMT -0600)
SOUTH BEND STATION 1 | Change Station
CLOSE
Current Station
Personal Weather Station
Location: SOUTH BEND, TX
Elevation: 1056 ft
Nearby Weather Stations

Elev 1056 ft 33.01 °N, 98.66 °W | Updated 12 seconds ago

Clear
Clear
39.3 °F
Feels Like 39 °F
N
2.0
Wind Variable Wind from West
Gusts 3.0 mph

Today
High -- | Low -- °F
--% Chance of Precip.
Yesterday
High -- | Low -- °F
Precip. -- in
7:36 AM 5:36 PM
Waxing Crescent, 49% visible
Pressure 30.29 in
Visibility 10.0 miles
Clouds Clear
Windchill 39 °F
Dew Point 28 °F
Humidity 63%
Rainfall 0.00 in
Snow Depth Not available.
UV 2 out of 12
Pollen 9.00 out of 12
Air Quality Not available.
Flu Activity Not available.
METAR KRPH 281630Z AUTO 26003KT 10SM CLR 04/M03 A3029 RMK AO2 T00361026

More Conditions Fewer Conditions

Pressure 30.29 in
Visibility 10.0 miles
Clouds Clear
Windchill 39 °F
Dew Point 28 °F
Humidity 63%
Rainfall 0.00 in
Snow Depth Not available.
UV 2 out of 12
Pollen 9.00 out of 12
Air Quality Not available.
Flu Activity Not available.
METAR KRPH 281630Z AUTO 26003KT 10SM CLR 04/M03 A3029 RMK AO2 T00361026

More Conditions Fewer Conditions

Nowcast | as of 8:38 am CST on December 28, 2014

Light rain with occasional small sleet or snow will dampen a few locations south of a line from Comanche to Hillsboro to Athens through 10 am. Only trace amounts are expected and temperatures will remain above freezing. Otherwise...cold conditions will continue with temperatures generally holding in the 30s through 11 am. Areas west of a line from Comanche to Montague will see sun this morning...but the rest of north/central TX will remain mostly cloudy.

×

10-Day Weather Forecast

Almanac

Astronomy

Dec. 28, 2014 Rise Set
Actual Time
Civil Twilight
Nautical Twilight
Astronomical Twilight
Moon
Length of Visible Light
Length of Day
Tomorrow will be .
, % of the Moon is Illuminated

Today's Extremes

State Highs State Lows

Community

WunderPhotos

Upload Photos

1,781,344 photos uploaded!

WunderBlogs® & News

Nearby

Air Quality

  Air Quality AQ Index Pollutant
Not available.

Snow Depth

Station Depth Elevation

Earthquake Activity

City Distance Mag. Time & Date
Minimum magnitude displayed is 2.5.

Coastal Water Temperatures

Place Temperature

Nearby Weather Stations